Time;durP1;ratioP1;P1;durP2;ratioP2;P2;SDS_P1;SDS_P2;PMS_P1;PMS_P2;Temp;Humidity;BMP_temperature;BMP_pressure;BME280_temperature;BME280_humidity;BME280_pressure;Samples;Min_cycle;Max_cycle;Signal;HPM_P1;HPM_P2
2023/04/06 00:01:40;;;;;;;7.60;5.68;;;6.30;92.50;;;;;;5118423;28;20028;-86
2023/04/06 00:04:07;;;;;;;7.80;5.32;;;6.30;92.50;;;;;;5117823;28;20024;-84
2023/04/06 00:06:33;;;;;;;10.45;6.53;;;6.30;92.50;;;;;;5113076;28;20035;-84
2023/04/06 00:09:00;;;;;;;8.88;6.65;;;6.30;92.60;;;;;;5114012;28;20044;-85
2023/04/06 00:11:26;;;;;;;8.53;6.00;;;6.20;92.60;;;;;;5102044;28;20118;-85
2023/04/06 00:13:53;;;;;;;9.70;6.35;;;6.20;92.60;;;;;;5094911;28;20108;-86
2023/04/06 00:16:20;;;;;;;8.32;6.28;;;6.20;92.70;;;;;;5099989;28;20028;-85
2023/04/06 00:18:47;;;;;;;10.40;6.25;;;6.10;92.70;;;;;;5103246;28;20036;-84
2023/04/06 00:21:14;;;;;;;8.65;6.38;;;6.10;92.70;;;;;;5102621;28;20020;-85
2023/04/06 00:23:41;;;;;;;8.05;6.53;;;6.10;92.80;;;;;;5100924;28;20024;-85
2023/04/06 00:26:08;;;;;;;8.10;6.53;;;6.10;92.80;;;;;;5096524;28;20028;-85
2023/04/06 00:28:34;;;;;;;10.52;6.88;;;6.10;92.80;;;;;;5089367;28;20063;-84
2023/04/06 00:31:00;;;;;;;7.93;6.20;;;6.10;92.90;;;;;;5097084;28;20020;-82
2023/04/06 00:33:26;;;;;;;8.70;6.20;;;6.10;93.00;;;;;;5084935;28;20044;-83
2023/04/06 00:35:52;;;;;;;9.80;7.28;;;6.10;93.10;;;;;;5098039;28;20039;-83
2023/04/06 00:38:18;;;;;;;9.63;6.32;;;6.10;93.10;;;;;;5099639;28;20469;-84
2023/04/06 00:40:44;;;;;;;8.80;6.45;;;6.10;93.10;;;;;;5098552;28;20088;-83
2023/04/06 00:43:14;;;;;;;6.70;6.00;;;6.10;93.10;;;;;;5094512;28;20100;-84
2023/04/06 00:45:40;;;;;;;7.53;5.80;;;6.00;93.10;;;;;;5106986;28;20107;-84
2023/04/06 00:48:07;;;;;;;10.25;6.63;;;6.00;93.20;;;;;;5108027;28;20024;-83
2023/04/06 00:50:33;;;;;;;10.80;6.28;;;6.00;93.30;;;;;;5104139;28;20040;-84
2023/04/06 00:53:02;;;;;;;11.40;6.47;;;6.00;93.30;;;;;;5105137;28;20031;-83
2023/04/06 00:55:29;;;;;;;11.60;6.85;;;6.00;93.20;;;;;;5101868;28;20099;-84
2023/04/06 00:57:58;;;;;;;9.83;6.47;;;6.00;93.20;;;;;;5105569;28;20053;-83
2023/04/06 01:00:24;;;;;;;8.57;6.50;;;6.00;93.30;;;;;;5103634;28;20019;-83
2023/04/06 01:02:56;;;;;;;11.05;6.68;;;5.90;93.30;;;;;;5094926;28;20027;-85
2023/04/06 01:05:22;;;;;;;10.15;6.78;;;5.90;93.70;;;;;;5093772;28;20012;-84
2023/04/06 01:07:48;;;;;;;9.60;7.03;;;5.90;93.40;;;;;;5095152;28;20039;-84
2023/04/06 01:10:25;;;;;;;8.57;6.70;;;5.90;93.40;;;;;;5093965;28;20036;-83
2023/04/06 01:13:08;;;;;;;10.15;6.07;;;5.90;93.60;;;;;;5094728;28;20031;-84
2023/04/06 01:15:44;;;;;;;12.48;7.05;;;5.90;93.60;;;;;;5099483;28;20096;-84
2023/04/06 01:18:10;;;;;;;8.60;6.65;;;5.80;93.70;;;;;;5091231;28;20491;-85
2023/04/06 01:20:36;;;;;;;10.70;7.38;;;5.80;93.70;;;;;;5098505;28;20059;-84
2023/04/06 01:23:02;;;;;;;8.77;7.25;;;5.80;93.70;;;;;;5100632;28;20366;-84
2023/04/06 01:25:28;;;;;;;10.02;7.40;;;5.80;93.80;;;;;;5101244;28;20146;-83
2023/04/06 01:27:54;;;;;;;10.25;6.75;;;5.70;93.80;;;;;;5095625;28;20020;-84
2023/04/06 01:30:20;;;;;;;10.93;7.15;;;5.70;94.10;;;;;;5096973;28;20028;-85
2023/04/06 01:32:52;;;;;;;10.80;7.78;;;5.60;94.00;;;;;;5104545;28;20016;-83
2023/04/06 01:35:19;;;;;;;10.75;6.88;;;5.60;94.00;;;;;;5104234;28;20039;-84
2023/04/06 01:37:45;;;;;;;12.40;7.47;;;5.60;94.10;;;;;;5097422;28;20012;-84
2023/04/06 01:40:11;;;;;;;10.25;7.40;;;5.50;94.30;;;;;;5090483;28;20023;-84
2023/04/06 01:42:37;;;;;;;9.48;7.63;;;5.50;94.20;;;;;;5099146;28;20382;-84
2023/04/06 01:45:04;;;;;;;12.82;7.55;;;5.50;94.40;;;;;;5098074;28;20075;-83
2023/04/06 01:47:30;;;;;;;10.05;6.75;;;5.50;94.40;;;;;;5086270;28;20059;-85
2023/04/06 01:49:56;;;;;;;11.77;8.35;;;5.50;94.70;;;;;;5081146;28;20047;-85
2023/04/06 01:52:22;;;;;;;12.27;8.63;;;5.40;94.40;;;;;;5097254;28;20020;-85
2023/04/06 01:54:48;;;;;;;12.43;8.02;;;5.40;94.40;;;;;;5087178;28;20034;-83
2023/04/06 01:57:14;;;;;;;11.48;8.63;;;5.40;94.50;;;;;;5104601;28;20028;-84
2023/04/06 01:59:40;;;;;;;13.00;7.80;;;5.40;94.60;;;;;;5102148;28;20036;-83
2023/04/06 02:02:06;;;;;;;11.70;8.48;;;5.40;94.60;;;;;;5091573;28;20365;-82
2023/04/06 02:04:31;;;;;;;13.88;8.43;;;5.40;94.70;;;;;;5095312;28;20477;-83
2023/04/06 02:06:57;;;;;;;13.63;9.32;;;5.30;94.70;;;;;;5094725;28;20065;-85
2023/04/06 02:09:23;;;;;;;11.93;8.75;;;5.30;94.70;;;;;;5094385;28;20036;-83
2023/04/06 02:11:49;;;;;;;14.40;7.65;;;5.40;94.80;;;;;;5101975;28;20024;-85
2023/04/06 02:14:15;;;;;;;11.35;8.75;;;5.30;94.80;;;;;;5097462;28;20024;-84
2023/04/06 02:16:41;;;;;;;12.93;8.57;;;5.30;94.80;;;;;;5098474;28;20382;-83
2023/04/06 02:19:08;;;;;;;11.43;9.35;;;5.20;94.90;;;;;;5106513;28;20028;-84
2023/04/06 02:21:34;;;;;;;10.98;8.13;;;5.30;95.00;;;;;;5097815;28;20020;-84
2023/04/06 02:24:00;;;;;;;10.52;7.78;;;5.30;95.00;;;;;;5100340;28;20028;-86
2023/04/06 02:26:26;;;;;;;13.40;7.95;;;5.20;94.90;;;;;;5097245;28;20021;-84
2023/04/06 02:28:51;;;;;;;18.67;8.27;;;5.20;94.90;;;;;;5097949;28;20181;-86
2023/04/06 02:31:17;;;;;;;10.77;8.05;;;5.20;95.10;;;;;;5103708;28;20020;-85
2023/04/06 02:33:43;;;;;;;13.90;7.47;;;5.10;95.10;;;;;;5089922;28;20025;-85
2023/04/06 02:36:09;;;;;;;9.38;7.90;;;5.10;95.10;;;;;;5096355;28;20413;-84
2023/04/06 02:38:35;;;;;;;10.70;7.47;;;5.10;95.10;;;;;;5102598;28;20023;-85
2023/04/06 02:41:01;;;;;;;11.68;7.68;;;5.10;95.20;;;;;;5084702;28;20027;-85
2023/04/06 02:43:27;;;;;;;10.10;8.40;;;5.10;95.10;;;;;;5090399;28;20027;-85
2023/04/06 02:45:53;;;;;;;9.82;7.78;;;5.10;95.20;;;;;;5100023;28;20030;-85
2023/04/06 02:48:19;;;;;;;11.18;7.47;;;5.10;95.10;;;;;;5107059;28;20043;-84
2023/04/06 02:50:45;;;;;;;10.25;7.57;;;5.10;95.10;;;;;;5113694;28;20071;-83
2023/04/06 02:53:10;;;;;;;12.13;7.60;;;5.10;95.20;;;;;;5107753;28;20012;-84
2023/04/06 02:55:36;;;;;;;10.63;7.50;;;5.10;95.20;;;;;;5103120;28;20024;-84
2023/04/06 02:58:02;;;;;;;11.88;8.45;;;5.10;95.20;;;;;;5100212;28;20024;-84
2023/04/06 03:00:28;;;;;;;12.90;8.02;;;5.10;95.20;;;;;;5097561;28;20024;-83
2023/04/06 03:02:54;;;;;;;14.10;8.02;;;5.10;95.10;;;;;;5095866;28;20024;-84
2023/04/06 03:05:20;;;;;;;9.32;6.70;;;5.10;95.10;;;;;;5097000;28;20042;-83
2023/04/06 03:07:46;;;;;;;10.63;7.70;;;5.10;95.10;;;;;;5096610;28;20032;-84
2023/04/06 03:10:12;;;;;;;12.43;7.82;;;5.10;95.10;;;;;;5095368;28;20081;-84
2023/04/06 03:12:38;;;;;;;12.55;7.82;;;5.10;95.20;;;;;;5094919;28;20071;-83
2023/04/06 03:15:05;;;;;;;14.02;7.60;;;5.10;95.10;;;;;;5095726;28;20438;-84
2023/04/06 03:17:30;;;;;;;12.47;7.50;;;5.20;95.10;;;;;;5099721;28;20012;-85
2023/04/06 03:19:56;;;;;;;15.98;8.50;;;5.20;95.00;;;;;;5096534;28;20039;-84
2023/04/06 03:22:22;;;;;;;13.75;9.02;;;5.20;95.00;;;;;;5078608;28;20024;-84
2023/04/06 03:24:48;;;;;;;12.95;7.63;;;5.30;94.90;;;;;;5097872;28;20424;-84
2023/04/06 03:27:14;;;;;;;9.80;6.85;;;5.30;94.80;;;;;;5097546;28;20063;-83
2023/04/06 03:29:40;;;;;;;9.75;7.13;;;5.40;94.70;;;;;;5102912;28;20024;-85
2023/04/06 03:32:06;;;;;;;11.52;7.38;;;5.40;94.70;;;;;;5098588;28;20020;-83
2023/04/06 03:34:32;;;;;;;11.18;6.85;;;5.40;94.70;;;;;;5096989;28;20481;-83
2023/04/06 03:36:57;;;;;;;9.70;7.63;;;5.50;94.60;;;;;;5095578;28;20020;-84
2023/04/06 03:39:23;;;;;;;9.93;7.07;;;5.50;94.50;;;;;;5102440;28;20419;-85
2023/04/06 03:41:49;;;;;;;12.95;9.27;;;5.50;94.40;;;;;;5107968;28;20397;-83
2023/04/06 03:44:16;;;;;;;10.63;7.03;;;5.50;94.40;;;;;;5108726;28;20020;-84
2023/04/06 03:46:42;;;;;;;9.67;6.07;;;5.60;94.30;;;;;;5098572;28;20095;-84
2023/04/06 03:49:08;;;;;;;9.88;7.03;;;5.60;94.10;;;;;;5097758;28;20082;-83
2023/04/06 03:51:36;;;;;;;10.40;7.90;;;5.60;94.00;;;;;;5095265;28;20529;-84
2023/04/06 03:54:02;;;;;;;11.93;7.45;;;5.70;93.90;;;;;;5097259;28;20024;-85
2023/04/06 03:56:28;;;;;;;9.10;6.30;;;5.70;93.80;;;;;;5083548;28;20128;-87
2023/04/06 03:58:54;;;;;;;19.15;10.85;;;5.70;93.80;;;;;;5084753;28;20052;-86
2023/04/06 04:01:20;;;;;;;11.18;7.03;;;5.70;93.70;;;;;;5096789;28;20055;-85
2023/04/06 04:03:46;;;;;;;17.98;9.93;;;5.70;93.90;;;;;;5099495;28;20119;-87
2023/04/06 04:06:12;;;;;;;12.88;8.45;;;5.80;93.80;;;;;;5095177;28;20058;-86
2023/04/06 04:08:37;;;;;;;10.50;6.78;;;5.80;93.70;;;;;;5096021;28;20019;-85
2023/04/06 04:11:03;;;;;;;9.02;6.70;;;5.80;93.70;;;;;;5098333;28;20080;-87
2023/04/06 04:13:30;;;;;;;11.70;7.03;;;5.90;93.60;;;;;;5103120;28;20023;-84
2023/04/06 04:15:56;;;;;;;11.93;6.90;;;6.00;93.40;;;;;;5089869;28;20032;-85
2023/04/06 04:18:23;;;;;;;9.32;6.80;;;6.00;93.20;;;;;;5088753;28;20031;-85
2023/04/06 04:20:49;;;;;;;9.20;5.88;;;6.10;93.10;;;;;;5095936;28;20485;-86
2023/04/06 04:23:15;;;;;;;20.83;8.25;;;6.00;93.10;;;;;;5096806;28;20020;-84
2023/04/06 04:25:41;;;;;;;14.77;6.70;;;6.20;93.00;;;;;;5096568;28;20016;-84
2023/04/06 04:28:07;;;;;;;7.40;5.63;;;6.40;92.80;;;;;;5099586;28;20020;-84
2023/04/06 04:30:33;;;;;;;9.27;5.90;;;6.60;92.10;;;;;;5091846;28;20028;-83
2023/04/06 04:32:59;;;;;;;10.05;6.88;;;6.90;91.90;;;;;;5109975;28;20020;-84
2023/04/06 04:35:25;;;;;;;7.80;7.00;;;7.30;91.20;;;;;;5108026;28;20032;-84
2023/04/06 04:37:52;;;;;;;11.23;6.78;;;7.70;90.50;;;;;;5109616;28;20024;-87
2023/04/06 04:40:18;;;;;;;10.43;5.88;;;7.80;89.80;;;;;;5095576;28;20247;-87
2023/04/06 04:42:44;;;;;;;11.43;5.88;;;8.10;89.10;;;;;;5109035;28;20473;-86
2023/04/06 04:45:11;;;;;;;11.45;5.93;;;8.40;87.70;;;;;;5096917;28;20024;-86
2023/04/06 04:47:38;;;;;;;7.15;5.47;;;8.50;86.90;;;;;;5082368;28;20115;-88
2023/04/06 04:50:05;;;;;;;16.98;8.45;;;8.60;86.00;;;;;;5100876;28;20038;-87
2023/04/06 04:52:31;;;;;;;9.70;6.35;;;8.70;85.80;;;;;;5087217;28;20059;-87
2023/04/06 04:54:57;;;;;;;8.80;6.15;;;9.00;84.50;;;;;;5097292;28;20334;-87
2023/04/06 04:57:23;;;;;;;13.60;6.45;;;8.80;83.50;;;;;;5101450;28;20020;-89
2023/04/06 04:59:50;;;;;;;13.85;5.35;;;8.50;83.60;;;;;;5096856;28;20106;-88
2023/04/06 05:02:19;;;;;;;8.50;6.47;;;8.10;85.60;;;;;;5099715;28;20119;-88
2023/04/06 05:04:47;;;;;;;9.98;5.78;;;7.80;86.30;;;;;;5101073;28;20031;-88
2023/04/06 05:07:13;;;;;;;24.70;11.20;;;7.50;87.50;;;;;;5083402;28;20123;-85
2023/04/06 05:09:39;;;;;;;10.80;5.90;;;7.20;89.00;;;;;;5091611;28;20127;-84
2023/04/06 05:12:05;;;;;;;12.27;6.55;;;7.10;89.30;;;;;;5097425;28;20032;-84
2023/04/06 05:14:31;;;;;;;12.95;5.75;;;7.00;89.10;;;;;;5100215;28;20032;-86
2023/04/06 05:16:58;;;;;;;10.77;6.10;;;6.90;89.50;;;;;;5097419;28;21486;-86
2023/04/06 05:19:24;;;;;;;9.13;6.25;;;7.00;90.20;;;;;;5106776;28;20036;-87
2023/04/06 05:21:50;;;;;;;12.77;5.78;;;7.40;89.70;;;;;;5106554;28;20032;-85
2023/04/06 05:24:16;;;;;;;10.05;6.28;;;7.60;88.10;;;;;;5104481;28;20047;-85
2023/04/06 05:26:42;;;;;;;16.30;6.45;;;7.70;87.70;;;;;;5093588;28;20019;-85
2023/04/06 05:29:10;;;;;;;4.95;4.20;;;7.60;87.60;;;;;;5106593;28;20032;-86
2023/04/06 05:31:36;;;;;;;8.45;5.75;;;7.50;87.40;;;;;;5110198;28;20040;-87
2023/04/06 05:34:01;;;;;;;14.93;6.68;;;7.30;88.40;;;;;;5087211;28;20043;-86
2023/04/06 05:36:27;;;;;;;9.63;6.68;;;7.20;89.10;;;;;;5096298;28;20107;-89
2023/04/06 05:38:55;;;;;;;5.05;3.95;;;7.20;89.60;;;;;;5098881;28;20039;-85
2023/04/06 05:41:21;;;;;;;12.90;6.85;;;7.30;89.10;;;;;;5093787;28;20027;-82
2023/04/06 05:43:46;;;;;;;10.60;6.25;;;7.20;89.30;;;;;;5094136;28;20116;-82
2023/04/06 05:46:12;;;;;;;9.40;5.38;;;7.20;89.60;;;;;;5092060;28;20024;-83
2023/04/06 05:48:38;;;;;;;11.23;6.05;;;7.20;89.60;;;;;;5094816;28;20023;-81
2023/04/06 05:51:06;;;;;;;10.93;6.43;;;7.20;89.10;;;;;;5088929;28;20025;-82
2023/04/06 05:53:32;;;;;;;7.90;5.47;;;7.30;89.10;;;;;;5094616;28;20036;-81
2023/04/06 05:56:01;;;;;;;17.80;10.18;;;7.40;88.80;;;;;;5091068;28;20036;-83
2023/04/06 05:58:28;;;;;;;14.90;6.22;;;7.50;89.10;;;;;;5093620;28;20040;-81
2023/04/06 06:00:58;;;;;;;11.48;6.55;;;7.70;88.60;;;;;;5093694;28;20618;-81
2023/04/06 06:03:24;;;;;;;11.82;5.18;;;7.70;87.70;;;;;;5097753;28;20392;-80
2023/04/06 06:05:50;;;;;;;16.27;6.35;;;8.10;87.60;;;;;;5097265;28;20043;-81
2023/04/06 06:08:16;;;;;;;11.07;5.95;;;9.40;86.90;;;;;;5096609;28;20423;-81
2023/04/06 06:10:42;;;;;;;9.95;6.80;;;11.30;81.60;;;;;;5094161;28;20036;-80
2023/04/06 06:13:09;;;;;;;9.93;5.57;;;13.00;75.60;;;;;;5094197;28;20020;-81
2023/04/06 06:15:35;;;;;;;10.98;5.55;;;14.50;70.50;;;;;;5094583;28;20575;-81
2023/04/06 06:18:01;;;;;;;11.05;5.30;;;16.00;65.20;;;;;;5083106;28;20024;-80
2023/04/06 06:20:27;;;;;;;13.77;5.03;;;;;;;;;;5094664;28;20503;-82
2023/04/06 06:22:53;;;;;;;13.60;5.15;;;17.30;58.40;;;;;;5094867;28;20035;-81
2023/04/06 06:25:19;;;;;;;13.15;6.68;;;18.20;56.60;;;;;;5096613;28;20016;-80
2023/04/06 06:27:45;;;;;;;17.60;6.20;;;18.70;53.00;;;;;;5094246;28;20035;-80
2023/04/06 06:30:11;;;;;;;12.48;5.05;;;18.90;53.20;;;;;;5099865;28;20043;-81
2023/04/06 06:32:37;;;;;;;12.85;5.88;;;19.40;51.40;;;;;;5100202;28;20071;-80
2023/04/06 06:35:03;;;;;;;10.60;5.32;;;19.50;50.50;;;;;;5099842;28;20060;-82
2023/04/06 06:37:29;;;;;;;15.00;5.53;;;19.90;49.60;;;;;;5095170;28;20024;-81
2023/04/06 06:39:55;;;;;;;13.52;5.32;;;20.10;48.10;;;;;;5097027;28;20032;-83
2023/04/06 06:42:21;;;;;;;11.80;6.28;;;20.00;48.60;;;;;;5095895;28;20012;-83
2023/04/06 06:44:47;;;;;;;11.52;6.60;;;20.70;47.80;;;;;;5095704;28;20086;-82
2023/04/06 06:47:13;;;;;;;15.18;5.97;;;;;;;;;;5094538;28;20024;-81
2023/04/06 06:49:39;;;;;;;9.52;7.03;;;21.10;45.70;;;;;;5092298;28;20040;-81
2023/04/06 06:52:05;;;;;;;10.70;5.60;;;21.40;45.80;;;;;;5093418;28;20099;-82
2023/04/06 06:54:31;;;;;;;11.82;6.30;;;20.50;46.10;;;;;;5093669;28;20485;-82
2023/04/06 06:56:57;;;;;;;10.20;5.80;;;20.70;45.80;;;;;;5080693;28;20116;-83
2023/04/06 06:59:23;;;;;;;10.98;5.90;;;21.10;45.10;;;;;;5094810;28;20782;-80
2023/04/06 07:01:50;;;;;;;14.13;8.40;;;21.30;44.60;;;;;;5093585;28;20035;-82
2023/04/06 07:04:16;;;;;;;13.68;5.72;;;21.30;43.90;;;;;;5098157;28;20028;-81
2023/04/06 07:06:41;;;;;;;13.75;5.55;;;20.10;45.00;;;;;;5096980;28;20027;-82
2023/04/06 07:09:07;;;;;;;17.20;5.90;;;19.50;46.80;;;;;;5097594;28;20538;-81
2023/04/06 07:11:33;;;;;;;11.00;5.15;;;19.80;46.90;;;;;;5098026;28;20113;-81
2023/04/06 07:13:59;;;;;;;16.98;6.38;;;21.00;45.60;;;;;;5099435;28;20105;-82
2023/04/06 07:16:25;;;;;;;7.97;5.30;;;21.20;44.50;;;;;;5099157;28;20026;-82
2023/04/06 07:18:51;;;;;;;12.30;6.85;;;20.60;44.70;;;;;;5095273;28;20400;-82
2023/04/06 07:21:17;;;;;;;17.92;7.55;;;20.70;44.70;;;;;;5098028;28;20095;-83
2023/04/06 07:23:43;;;;;;;8.77;4.78;;;20.90;44.50;;;;;;5098095;28;20477;-83
2023/04/06 07:26:09;;;;;;;10.23;4.97;;;20.70;44.20;;;;;;5097439;28;20078;-83
2023/04/06 07:28:35;;;;;;;16.52;5.68;;;20.80;44.40;;;;;;5099120;28;20024;-82
2023/04/06 07:31:01;;;;;;;9.95;5.60;;;20.40;44.90;;;;;;5098795;28;20031;-82
2023/04/06 07:33:29;;;;;;;11.88;5.65;;;21.00;44.60;;;;;;5097076;28;20024;-82
2023/04/06 07:35:56;;;;;;;16.92;5.55;;;21.50;43.10;;;;;;5104243;28;20078;-82
2023/04/06 07:38:22;;;;;;;10.85;5.82;;;21.40;42.70;;;;;;5100964;28;20035;-82
2023/04/06 07:40:48;;;;;;;15.35;5.35;;;20.70;43.70;;;;;;5106295;28;20032;-82
2023/04/06 07:43:15;;;;;;;13.52;5.50;;;21.00;43.50;;;;;;5102585;28;20469;-81
2023/04/06 07:45:41;;;;;;;8.70;5.15;;;21.60;42.70;;;;;;5098502;28;20071;-82
2023/04/06 07:48:07;;;;;;;11.52;4.80;;;21.10;43.00;;;;;;5097436;28;20481;-82
2023/04/06 07:50:33;;;;;;;12.30;5.38;;;21.10;43.10;;;;;;5096591;28;20055;-82
2023/04/06 07:53:00;;;;;;;12.43;4.75;;;21.80;42.70;;;;;;5098108;28;20020;-81
2023/04/06 07:55:26;;;;;;;11.23;4.75;;;22.20;41.80;;;;;;5096786;28;20036;-82
2023/04/06 07:57:52;;;;;;;8.93;4.90;;;22.90;40.90;;;;;;5096931;28;20024;-82
2023/04/06 08:00:18;;;;;;;9.32;4.50;;;23.50;39.90;;;;;;5097538;28;20035;-83
2023/04/06 08:02:44;;;;;;;20.67;5.00;;;22.70;39.80;;;;;;5096582;28;20027;-82
2023/04/06 08:05:10;;;;;;;16.05;4.95;;;22.50;40.80;;;;;;5094102;28;20024;-81
2023/04/06 08:07:36;;;;;;;12.57;5.38;;;22.50;41.00;;;;;;5095760;28;20035;-80
2023/04/06 08:10:02;;;;;;;10.20;4.80;;;23.10;40.20;;;;;;5097739;28;20036;-82
2023/04/06 08:12:28;;;;;;;11.07;5.37;;;23.60;39.20;;;;;;5094338;28;20424;-84
2023/04/06 08:15:18;;;;;;;10.35;4.13;;;23.20;39.70;;;;;;5096703;28;20137;-81
2023/04/06 08:17:43;;;;;;;10.55;3.72;;;23.80;39.40;;;;;;5098810;28;20048;-83
2023/04/06 08:20:09;;;;;;;17.65;4.72;;;25.20;37.30;;;;;;5099507;28;20031;-81
2023/04/06 08:22:35;;;;;;;9.80;4.85;;;24.80;37.10;;;;;;5093395;28;20052;-81
2023/04/06 08:25:01;;;;;;;10.38;4.07;;;24.70;37.20;;;;;;5095973;28;20066;-82
2023/04/06 08:27:28;;;;;;;10.30;3.95;;;;;;;;;;5095620;28;20020;-81
2023/04/06 08:29:54;;;;;;;5.80;4.17;;;;;;;;;;5097296;28;20074;-82
2023/04/06 08:32:20;;;;;;;12.80;3.90;;;;;;;;;;5096272;28;20031;-83
2023/04/06 08:34:46;;;;;;;16.43;4.63;;;;;;;;;;5098396;28;20028;-82
2023/04/06 08:37:13;;;;;;;15.60;4.45;;;;;;;;;;5099187;28;20030;-80
2023/04/06 08:39:39;;;;;;;17.60;4.43;;;;;;;;;;5095931;28;20409;-81
2023/04/06 08:42:11;;;;;;;12.20;4.17;;;;;;;;;;5096664;28;20435;-82
2023/04/06 08:44:37;;;;;;;7.53;4.60;;;;;;;;;;5095955;28;20098;-81
2023/04/06 08:47:05;;;;;;;17.40;4.45;;;;;;;;;;5096059;28;20027;-82
2023/04/06 08:49:32;;;;;;;10.50;4.15;;;;;;;;;;5094554;28;20044;-83
2023/04/06 08:52:00;;;;;;;5.45;3.22;;;;;;;;;;5096273;28;20016;-82
2023/04/06 08:54:26;;;;;;;13.82;4.70;;;;;;;;;;5093376;28;20032;-82
2023/04/06 08:56:53;;;;;;;15.38;4.93;;;;;;;;;;5095714;28;20097;-82
2023/04/06 08:59:19;;;;;;;21.98;5.63;;;25.10;36.30;;;;;;5098473;28;20205;-83
2023/04/06 09:01:46;;;;;;;12.45;4.47;;;23.70;37.10;;;;;;5098241;28;20169;-82
2023/04/06 09:04:12;;;;;;;17.42;6.05;;;23.00;38.20;;;;;;5100057;28;20085;-82
2023/04/06 09:06:40;;;;;;;14.82;6.97;;;22.80;38.60;;;;;;5096922;28;20028;-82
2023/04/06 09:09:06;;;;;;;21.50;3.88;;;22.60;38.80;;;;;;5094969;28;20046;-83
2023/04/06 09:12:05;;;;;;;11.37;5.33;;;23.10;38.00;;;;;;5094986;28;20032;-82
2023/04/06 09:14:38;;;;;;;9.20;4.85;;;23.00;38.70;;;;;;5080261;28;20064;-82
2023/04/06 09:17:06;;;;;;;12.63;4.05;;;24.00;37.40;;;;;;5094646;28;20027;-82
2023/04/06 09:19:32;;;;;;;7.30;4.47;;;24.00;36.80;;;;;;5094510;28;20106;-83
2023/04/06 09:22:07;;;;;;;12.43;4.50;;;24.80;36.00;;;;;;5095523;28;20415;-82
2023/04/06 09:24:53;;;;;;;11.30;3.67;;;24.90;35.60;;;;;;5098212;28;20463;-82
2023/04/06 09:27:30;;;;;;;9.65;3.75;;;25.10;35.70;;;;;;5101227;28;20028;-83
2023/04/06 09:30:13;;;;;;;8.45;3.25;;;26.20;34.90;;;;;;5104383;28;20032;-83
2023/04/06 09:32:47;;;;;;;8.55;4.55;;;25.70;34.90;;;;;;5098892;28;20059;-82
2023/04/06 09:35:14;;;;;;;15.32;5.07;;;25.90;34.30;;;;;;5098847;28;20034;-80
2023/04/06 09:37:41;;;;;;;11.35;5.07;;;26.10;34.20;;;;;;5098099;28;20023;-82
2023/04/06 09:40:08;;;;;;;10.90;3.65;;;25.90;34.60;;;;;;5100965;28;20499;-83
2023/04/06 09:42:34;;;;;;;;;;;26.00;34.00;;;;;;5099397;28;20091;-82
2023/04/06 09:45:03;;;;;;;;;;;25.30;34.70;;;;;;5098733;28;19965;-81
2023/04/06 09:47:32;;;;;;;10.98;4.15;;;25.40;35.90;;;;;;5096925;28;19904;-82
2023/04/06 09:49:59;;;;;;;15.07;5.13;;;26.00;34.00;;;;;;5099719;28;20092;-83
2023/04/06 09:52:42;;;;;;;10.40;4.28;;;25.60;34.40;;;;;;5101641;28;20020;-81
2023/04/06 09:55:09;;;;;;;8.65;3.60;;;25.80;34.20;;;;;;5098708;28;20016;-82
2023/04/06 09:57:38;;;;;;;;;;;26.30;33.70;;;;;;5101475;28;20020;-82
2023/04/06 10:00:12;;;;;;;7.90;3.92;;;26.20;34.60;;;;;;5100588;28;20042;-82
2023/04/06 10:03:08;;;;;;;10.77;3.75;;;26.40;33.30;;;;;;5099578;28;20024;-82
2023/04/06 10:05:50;;;;;;;10.80;4.18;;;26.30;33.40;;;;;;5100365;28;20111;-82
2023/04/06 10:08:17;;;;;;;12.52;4.07;;;25.30;33.30;;;;;;5098939;28;20043;-82
2023/04/06 10:10:43;;;;;;;11.13;4.65;;;24.70;34.20;;;;;;5098633;28;20185;-83
2023/04/06 10:13:11;;;;;;;24.37;4.27;;;24.70;35.20;;;;;;5100553;28;20048;-83
2023/04/06 10:15:39;;;;;;;15.95;4.45;;;24.40;34.60;;;;;;5098501;28;20419;-83
2023/04/06 10:18:07;;;;;;;7.60;3.95;;;25.20;34.60;;;;;;5097164;28;20039;-82
2023/04/06 10:20:55;;;;;;;11.40;4.10;;;26.40;33.30;;;;;;5097654;28;20515;-83
2023/04/06 10:23:32;;;;;;;9.90;3.45;;;25.50;33.40;;;;;;5098415;28;20044;-82
2023/04/06 10:26:00;;;;;;;10.55;3.83;;;25.10;33.60;;;;;;5104292;28;20089;-83
2023/04/06 10:28:35;;;;;;;11.15;3.70;;;23.40;34.60;;;;;;5103085;28;20024;-81
2023/04/06 10:31:05;;;;;;;12.63;4.07;;;21.70;36.90;;;;;;5086026;28;20060;-83
2023/04/06 10:33:31;;;;;;;8.88;4.05;;;20.10;39.10;;;;;;5100716;28;20031;-82
2023/04/06 10:35:57;;;;;;;8.18;4.20;;;18.90;41.30;;;;;;5099959;28;20053;-82
2023/04/06 10:38:35;;;;;;;7.50;3.83;;;18.30;42.30;;;;;;5101536;28;20032;-81
2023/04/06 10:41:04;;;;;;;;;;;17.50;43.30;;;;;;5102494;28;20028;-83
2023/04/06 10:43:35;;;;;;;12.93;4.43;;;17.00;43.30;;;;;;5107464;28;19956;-82
2023/04/06 10:46:01;;;;;;;6.53;4.38;;;16.80;45.00;;;;;;5106913;28;20452;-82
2023/04/06 10:48:40;;;;;;;14.63;4.22;;;16.40;45.50;;;;;;5093194;28;20035;-82
2023/04/06 10:51:17;;;;;;;9.63;4.13;;;16.20;46.20;;;;;;5107880;28;20087;-82
2023/04/06 10:53:46;;;;;;;13.15;4.50;;;15.90;46.30;;;;;;5095227;28;20020;-83
2023/04/06 10:56:17;;;;;;;14.25;4.00;;;15.70;47.20;;;;;;5104789;28;20028;-83
2023/04/06 10:58:51;;;;;;;9.50;4.22;;;15.60;47.80;;;;;;5104375;28;20477;-82
2023/04/06 11:01:21;;;;;;;13.40;4.72;;;15.70;48.00;;;;;;5103315;28;20020;-83
2023/04/06 11:03:49;;;;;;;9.00;3.78;;;15.70;47.90;;;;;;5093339;28;20036;-82
2023/04/06 11:06:20;;;;;;;8.45;3.60;;;15.70;47.70;;;;;;5109451;28;20039;-83
2023/04/06 11:08:46;;;;;;;7.97;4.35;;;15.50;48.00;;;;;;5112626;28;20043;-83
2023/04/06 11:11:18;;;;;;;12.07;4.40;;;15.40;48.50;;;;;;5113627;28;20020;-81
2023/04/06 11:13:52;;;;;;;14.18;4.65;;;15.30;48.70;;;;;;5109916;28;20099;-81
2023/04/06 11:16:20;;;;;;;7.93;3.90;;;15.30;48.70;;;;;;5105742;28;20016;-81
2023/04/06 11:18:54;;;;;;;11.45;3.80;;;15.30;48.60;;;;;;5105916;28;20088;-81
2023/04/06 11:21:30;;;;;;;7.18;3.85;;;15.10;48.70;;;;;;5107173;28;20061;-82
2023/04/06 11:24:13;;;;;;;10.60;3.55;;;14.90;49.10;;;;;;5101414;28;20365;-82
2023/04/06 11:26:45;;;;;;;8.98;4.18;;;14.70;49.20;;;;;;5101074;28;20032;-83
2023/04/06 11:29:13;;;;;;;8.55;2.88;;;14.70;49.00;;;;;;5099821;28;20031;-81
2023/04/06 11:32:00;;;;;;;9.27;4.35;;;14.70;49.40;;;;;;5100266;28;20034;-82
2023/04/06 11:34:28;;;;;;;17.70;5.43;;;14.70;49.80;;;;;;5101301;28;20048;-81
2023/04/06 11:36:59;;;;;;;11.15;3.95;;;14.70;49.90;;;;;;5089315;28;20382;-81
2023/04/06 11:39:27;;;;;;;4.75;3.65;;;14.70;49.90;;;;;;5087614;28;20024;-83
2023/04/06 11:41:57;;;;;;;9.23;3.55;;;14.70;49.70;;;;;;5105271;28;20104;-83
2023/04/06 11:44:38;;;;;;;9.60;3.35;;;14.60;49.80;;;;;;5102833;28;20012;-85
2023/04/06 11:47:09;;;;;;;8.35;3.80;;;14.70;50.00;;;;;;5105203;28;20035;-82
2023/04/06 11:49:41;;;;;;;7.30;3.72;;;14.70;50.00;;;;;;5104589;28;20074;-80
2023/04/06 11:52:27;;;;;;;10.63;3.67;;;14.80;50.10;;;;;;5106535;28;20034;-82
2023/04/06 11:54:56;;;;;;;3.78;2.28;;;14.80;50.00;;;;;;5086656;28;20845;-81
2023/04/06 11:57:25;;;;;;;14.73;4.40;;;14.90;49.80;;;;;;5103249;28;20055;-82
2023/04/06 11:59:51;;;;;;;11.90;4.40;;;14.80;49.90;;;;;;5102952;28;20044;-83
2023/04/06 12:02:18;;;;;;;14.98;4.93;;;14.80;50.20;;;;;;5103478;28;20032;-83
2023/04/06 12:04:44;;;;;;;12.38;3.70;;;14.90;50.40;;;;;;5102919;28;20097;-81
2023/04/06 12:07:11;;;;;;;8.77;3.40;;;14.90;49.90;;;;;;5095596;28;20465;-82
2023/04/06 12:09:38;;;;;;;12.20;4.10;;;14.90;50.20;;;;;;5094920;28;20032;-84
2023/04/06 12:12:05;;;;;;;14.07;3.50;;;14.80;50.00;;;;;;5106554;28;20030;-83
2023/04/06 12:14:31;;;;;;;9.82;4.97;;;14.80;50.10;;;;;;5105977;28;20025;-84
2023/04/06 12:16:58;;;;;;;9.32;3.75;;;14.80;50.10;;;;;;5104975;28;20016;-81
2023/04/06 12:19:25;;;;;;;5.93;3.40;;;14.80;49.80;;;;;;5104729;28;20028;-81
2023/04/06 12:21:53;;;;;;;7.03;3.38;;;14.90;49.70;;;;;;5105576;28;20485;-81
2023/04/06 12:24:19;;;;;;;7.28;2.83;;;14.90;49.90;;;;;;5106396;28;20028;-83
2023/04/06 12:26:45;;;;;;;5.80;2.70;;;14.90;49.60;;;;;;5105327;28;20055;-81
2023/04/06 12:29:14;;;;;;;7.30;3.67;;;14.80;49.90;;;;;;5105625;28;20024;-84
2023/04/06 12:31:44;;;;;;;11.30;4.43;;;14.70;50.10;;;;;;5106356;28;20031;-84
2023/04/06 12:34:11;;;;;;;6.43;3.38;;;14.70;50.40;;;;;;5110306;28;20102;-81
2023/04/06 12:36:40;;;;;;;7.57;3.63;;;14.80;50.70;;;;;;5091825;28;20051;-83
2023/04/06 12:39:06;;;;;;;9.45;3.50;;;15.00;50.40;;;;;;5107944;28;20046;-83
2023/04/06 12:41:32;;;;;;;6.65;3.60;;;15.20;50.10;;;;;;5108463;28;20016;-83
2023/04/06 12:43:59;;;;;;;8.30;3.78;;;15.40;49.40;;;;;;5100410;28;20457;-83
2023/04/06 12:46:25;;;;;;;12.48;3.40;;;15.50;49.20;;;;;;5103052;28;20013;-82
2023/04/06 12:48:56;;;;;;;6.50;3.43;;;15.60;48.40;;;;;;5104489;28;20055;-82
2023/04/06 12:51:22;;;;;;;7.70;2.92;;;15.70;48.80;;;;;;5106420;28;20489;-82
2023/04/06 12:53:48;;;;;;;7.88;3.33;;;15.50;48.60;;;;;;5106322;28;20064;-82